sensor_id;sensor_type;location;lat;lon;timestamp;pressure;altitude;pressure_sealevel;temperature;humidity
61037;BME280;57313;47.040;15.498;2022-09-28T00:01:14;95672.06;;;8.41;100.00
61037;BME280;57313;47.040;15.498;2022-09-28T00:03:43;95663.66;;;8.37;100.00
61037;BME280;57313;47.040;15.498;2022-09-28T00:06:14;95661.19;;;8.36;100.00
61037;BME280;57313;47.040;15.498;2022-09-28T00:08:41;95656.13;;;8.34;100.00
61037;BME280;57313;47.040;15.498;2022-09-28T00:11:11;95647.66;;;8.32;100.00
61037;BME280;57313;47.040;15.498;2022-09-28T00:13:39;95650.94;;;8.34;100.00
61037;BME280;57313;47.040;15.498;2022-09-28T00:16:09;95650.59;;;8.27;100.00
61037;BME280;57313;47.040;15.498;2022-09-28T00:18:37;95647.56;;;8.22;100.00
61037;BME280;57313;47.040;15.498;2022-09-28T00:21:06;95649.34;;;8.22;100.00
61037;BME280;57313;47.040;15.498;2022-09-28T00:23:37;95659.34;;;8.15;100.00
61037;BME280;57313;47.040;15.498;2022-09-28T00:26:04;95662.50;;;8.07;100.00
61037;BME280;57313;47.040;15.498;2022-09-28T00:28:32;95672.88;;;8.07;100.00
61037;BME280;57313;47.040;15.498;2022-09-28T00:30:59;95661.34;;;8.00;100.00
61037;BME280;57313;47.040;15.498;2022-09-28T00:33:27;95648.50;;;7.99;100.00
61037;BME280;57313;47.040;15.498;2022-09-28T00:35:55;95641.66;;;7.98;100.00
61037;BME280;57313;47.040;15.498;2022-09-28T00:38:25;95637.28;;;7.98;100.00
61037;BME280;57313;47.040;15.498;2022-09-28T00:40:54;95644.50;;;7.95;100.00
61037;BME280;57313;47.040;15.498;2022-09-28T00:43:22;95652.38;;;7.93;100.00
61037;BME280;57313;47.040;15.498;2022-09-28T00:45:56;95654.16;;;7.93;100.00
61037;BME280;57313;47.040;15.498;2022-09-28T00:48:26;95650.25;;;7.87;100.00
61037;BME280;57313;47.040;15.498;2022-09-28T00:50:55;95653.66;;;7.87;100.00
61037;BME280;57313;47.040;15.498;2022-09-28T00:53:25;95647.09;;;7.83;100.00
61037;BME280;57313;47.040;15.498;2022-09-28T00:56:00;95642.03;;;7.82;100.00
61037;BME280;57313;47.040;15.498;2022-09-28T00:58:30;95649.53;;;7.73;100.00
61037;BME280;57313;47.040;15.498;2022-09-28T01:00:58;95644.81;;;7.67;100.00
61037;BME280;57313;47.040;15.498;2022-09-28T01:03:27;95657.88;;;7.66;100.00
61037;BME280;57313;47.040;15.498;2022-09-28T01:05:58;95648.44;;;7.53;100.00
61037;BME280;57313;47.040;15.498;2022-09-28T01:08:27;95649.03;;;7.46;100.00
61037;BME280;57313;47.040;15.498;2022-09-28T01:10:58;95657.16;;;7.41;100.00
61037;BME280;57313;47.040;15.498;2022-09-28T01:13:26;95654.06;;;7.36;100.00
61037;BME280;57313;47.040;15.498;2022-09-28T01:16:00;95661.25;;;7.32;100.00
61037;BME280;57313;47.040;15.498;2022-09-28T01:18:39;95658.88;;;7.29;100.00
61037;BME280;57313;47.040;15.498;2022-09-28T01:21:11;95652.25;;;7.25;100.00
61037;BME280;57313;47.040;15.498;2022-09-28T01:24:14;95649.19;;;7.20;100.00
61037;BME280;57313;47.040;15.498;2022-09-28T01:26:55;95656.25;;;7.18;100.00
61037;BME280;57313;47.040;15.498;2022-09-28T01:29:36;95655.75;;;7.13;100.00
61037;BME280;57313;47.040;15.498;2022-09-28T01:32:13;95655.38;;;7.06;100.00
61037;BME280;57313;47.040;15.498;2022-09-28T01:34:48;95656.31;;;7.05;100.00
61037;BME280;57313;47.040;15.498;2022-09-28T01:37:21;95650.66;;;7.00;100.00
61037;BME280;57313;47.040;15.498;2022-09-28T01:39:52;95646.84;;;6.93;100.00
61037;BME280;57313;47.040;15.498;2022-09-28T01:42:29;95640.03;;;6.92;100.00
61037;BME280;57313;47.040;15.498;2022-09-28T01:45:03;95630.03;;;6.87;100.00
61037;BME280;57313;47.040;15.498;2022-09-28T01:47:36;95637.78;;;6.87;100.00
61037;BME280;57313;47.040;15.498;2022-09-28T01:50:09;95625.41;;;6.79;100.00
61037;BME280;57313;47.040;15.498;2022-09-28T01:52:44;95626.56;;;6.75;100.00
61037;BME280;57313;47.040;15.498;2022-09-28T01:55:18;95618.31;;;6.70;100.00
61037;BME280;57313;47.040;15.498;2022-09-28T01:57:55;95609.84;;;6.68;100.00
61037;BME280;57313;47.040;15.498;2022-09-28T02:00:24;95618.75;;;6.64;100.00
61037;BME280;57313;47.040;15.498;2022-09-28T02:02:56;95624.63;;;6.66;100.00
61037;BME280;57313;47.040;15.498;2022-09-28T02:05:28;95625.81;;;6.62;100.00
61037;BME280;57313;47.040;15.498;2022-09-28T02:08:01;95629.53;;;6.58;100.00
61037;BME280;57313;47.040;15.498;2022-09-28T02:10:34;95621.16;;;6.54;100.00
61037;BME280;57313;47.040;15.498;2022-09-28T02:13:11;95618.91;;;6.50;100.00
61037;BME280;57313;47.040;15.498;2022-09-28T02:15:41;95613.84;;;6.48;100.00
61037;BME280;57313;47.040;15.498;2022-09-28T02:18:12;95600.28;;;6.44;100.00
61037;BME280;57313;47.040;15.498;2022-09-28T02:20:41;95603.22;;;6.40;100.00
61037;BME280;57313;47.040;15.498;2022-09-28T02:23:11;95602.94;;;6.32;100.00
61037;BME280;57313;47.040;15.498;2022-09-28T02:25:43;95603.16;;;6.28;100.00
61037;BME280;57313;47.040;15.498;2022-09-28T02:28:14;95599.84;;;6.26;100.00
61037;BME280;57313;47.040;15.498;2022-09-28T02:30:43;95601.00;;;6.22;100.00
61037;BME280;57313;47.040;15.498;2022-09-28T02:33:14;95601.72;;;6.24;100.00
61037;BME280;57313;47.040;15.498;2022-09-28T02:35:43;95595.72;;;6.24;100.00
61037;BME280;57313;47.040;15.498;2022-09-28T02:38:12;95602.47;;;6.14;100.00
61037;BME280;57313;47.040;15.498;2022-09-28T02:40:42;95601.97;;;6.08;100.00
61037;BME280;57313;47.040;15.498;2022-09-28T02:43:20;95607.94;;;6.09;100.00
61037;BME280;57313;47.040;15.498;2022-09-28T02:45:58;95614.56;;;6.13;100.00
61037;BME280;57313;47.040;15.498;2022-09-28T02:48:41;95608.59;;;6.13;100.00
61037;BME280;57313;47.040;15.498;2022-09-28T02:51:32;95608.78;;;6.09;100.00
61037;BME280;57313;47.040;15.498;2022-09-28T02:54:29;95602.19;;;6.05;100.00
61037;BME280;57313;47.040;15.498;2022-09-28T02:57:17;95594.53;;;6.04;100.00
61037;BME280;57313;47.040;15.498;2022-09-28T02:59:59;95594.03;;;5.99;100.00
61037;BME280;57313;47.040;15.498;2022-09-28T03:02:35;95595.03;;;5.96;100.00
61037;BME280;57313;47.040;15.498;2022-09-28T03:05:17;95610.84;;;5.91;100.00
61037;BME280;57313;47.040;15.498;2022-09-28T03:07:51;95601.59;;;5.89;100.00
61037;BME280;57313;47.040;15.498;2022-09-28T03:10:29;95605.50;;;5.82;100.00
61037;BME280;57313;47.040;15.498;2022-09-28T03:13:02;95606.53;;;5.79;100.00
61037;BME280;57313;47.040;15.498;2022-09-28T03:15:32;95612.97;;;5.73;100.00
61037;BME280;57313;47.040;15.498;2022-09-28T03:18:01;95615.66;;;5.72;100.00
61037;BME280;57313;47.040;15.498;2022-09-28T03:20:30;95624.75;;;5.65;100.00
61037;BME280;57313;47.040;15.498;2022-09-28T03:22:58;95607.78;;;5.61;100.00
61037;BME280;57313;47.040;15.498;2022-09-28T03:25:45;95604.69;;;5.55;100.00
61037;BME280;57313;47.040;15.498;2022-09-28T03:28:12;95598.81;;;5.53;100.00
61037;BME280;57313;47.040;15.498;2022-09-28T03:30:41;95598.63;;;5.56;100.00
61037;BME280;57313;47.040;15.498;2022-09-28T03:33:09;95590.88;;;5.56;100.00
61037;BME280;57313;47.040;15.498;2022-09-28T03:35:36;95595.19;;;5.56;100.00
61037;BME280;57313;47.040;15.498;2022-09-28T03:38:04;95592.59;;;5.56;100.00
61037;BME280;57313;47.040;15.498;2022-09-28T03:40:31;95590.88;;;5.56;100.00
61037;BME280;57313;47.040;15.498;2022-09-28T03:42:59;95596.13;;;5.55;100.00
61037;BME280;57313;47.040;15.498;2022-09-28T03:45:28;95610.69;;;5.56;100.00
61037;BME280;57313;47.040;15.498;2022-09-28T03:47:57;95604.59;;;5.57;100.00
61037;BME280;57313;47.040;15.498;2022-09-28T03:50:24;95587.44;;;5.56;100.00
61037;BME280;57313;47.040;15.498;2022-09-28T03:52:51;95587.66;;;5.53;100.00
61037;BME280;57313;47.040;15.498;2022-09-28T03:55:19;95580.97;;;5.50;100.00
61037;BME280;57313;47.040;15.498;2022-09-28T03:57:52;95584.66;;;5.46;100.00
61037;BME280;57313;47.040;15.498;2022-09-28T04:00:19;95579.09;;;5.39;100.00
61037;BME280;57313;47.040;15.498;2022-09-28T04:02:47;95584.38;;;5.38;100.00
61037;BME280;57313;47.040;15.498;2022-09-28T04:05:15;95583.63;;;5.36;100.00
61037;BME280;57313;47.040;15.498;2022-09-28T04:07:42;95585.69;;;5.31;100.00
61037;BME280;57313;47.040;15.498;2022-09-28T04:10:09;95577.34;;;5.27;100.00
61037;BME280;57313;47.040;15.498;2022-09-28T04:12:36;95573.09;;;5.26;100.00
61037;BME280;57313;47.040;15.498;2022-09-28T04:15:05;95585.69;;;5.18;100.00
61037;BME280;57313;47.040;15.498;2022-09-28T04:17:32;95571.97;;;5.17;100.00
61037;BME280;57313;47.040;15.498;2022-09-28T04:20:06;95578.25;;;5.13;100.00
61037;BME280;57313;47.040;15.498;2022-09-28T04:22:36;95572.50;;;5.10;100.00
61037;BME280;57313;47.040;15.498;2022-09-28T04:25:04;95567.94;;;5.13;100.00
61037;BME280;57313;47.040;15.498;2022-09-28T04:27:32;95551.53;;;5.14;100.00
61037;BME280;57313;47.040;15.498;2022-09-28T04:30:00;95556.81;;;5.13;100.00
61037;BME280;57313;47.040;15.498;2022-09-28T04:32:27;95553.28;;;5.14;100.00
61037;BME280;57313;47.040;15.498;2022-09-28T04:34:54;95551.84;;;5.10;100.00
61037;BME280;57313;47.040;15.498;2022-09-28T04:37:22;95555.34;;;5.09;100.00
61037;BME280;57313;47.040;15.498;2022-09-28T04:39:50;95548.84;;;5.03;100.00
61037;BME280;57313;47.040;15.498;2022-09-28T04:42:18;95548.22;;;4.99;100.00
61037;BME280;57313;47.040;15.498;2022-09-28T04:44:45;95551.50;;;5.01;100.00
61037;BME280;57313;47.040;15.498;2022-09-28T04:47:13;95566.06;;;5.02;100.00
61037;BME280;57313;47.040;15.498;2022-09-28T04:49:40;95583.22;;;5.03;100.00
61037;BME280;57313;47.040;15.498;2022-09-28T04:52:08;95568.97;;;4.98;100.00
61037;BME280;57313;47.040;15.498;2022-09-28T04:54:41;95574.22;;;4.96;100.00
61037;BME280;57313;47.040;15.498;2022-09-28T04:57:12;95581.53;;;4.90;100.00
61037;BME280;57313;47.040;15.498;2022-09-28T04:59:39;95581.09;;;4.83;100.00
61037;BME280;57313;47.040;15.498;2022-09-28T05:02:07;95581.09;;;4.83;100.00
61037;BME280;57313;47.040;15.498;2022-09-28T05:04:34;95588.13;;;4.81;100.00
61037;BME280;57313;47.040;15.498;2022-09-28T05:07:01;95593.47;;;4.78;100.00
61037;BME280;57313;47.040;15.498;2022-09-28T05:09:28;95600.69;;;4.73;100.00
61037;BME280;57313;47.040;15.498;2022-09-28T05:11:55;95596.16;;;4.76;100.00
61037;BME280;57313;47.040;15.498;2022-09-28T05:14:24;95578.72;;;4.80;100.00
61037;BME280;57313;47.040;15.498;2022-09-28T05:16:51;95582.34;;;4.77;100.00
61037;BME280;57313;47.040;15.498;2022-09-28T05:19:18;95583.75;;;4.68;100.00
61037;BME280;57313;47.040;15.498;2022-09-28T05:21:46;95585.41;;;4.70;100.00
61037;BME280;57313;47.040;15.498;2022-09-28T05:24:13;95584.38;;;4.72;100.00
61037;BME280;57313;47.040;15.498;2022-09-28T05:26:40;95584.38;;;4.72;100.00
61037;BME280;57313;47.040;15.498;2022-09-28T05:29:08;95579.31;;;4.71;100.00
61037;BME280;57313;47.040;15.498;2022-09-28T05:31:36;95583.56;;;4.72;100.00
61037;BME280;57313;47.040;15.498;2022-09-28T05:34:03;95577.28;;;4.76;100.00
61037;BME280;57313;47.040;15.498;2022-09-28T05:36:31;95582.97;;;4.81;100.00
61037;BME280;57313;47.040;15.498;2022-09-28T05:38:57;95563.78;;;4.85;100.00
61037;BME280;57313;47.040;15.498;2022-09-28T05:41:25;95574.81;;;4.87;100.00
61037;BME280;57313;47.040;15.498;2022-09-28T05:43:52;95577.91;;;4.92;100.00
61037;BME280;57313;47.040;15.498;2022-09-28T05:46:19;95585.16;;;5.00;100.00
61037;BME280;57313;47.040;15.498;2022-09-28T05:48:48;95578.78;;;5.06;100.00
61037;BME280;57313;47.040;15.498;2022-09-28T05:51:15;95567.75;;;5.03;100.00
61037;BME280;57313;47.040;15.498;2022-09-28T05:53:42;95559.69;;;5.08;100.00
61037;BME280;57313;47.040;15.498;2022-09-28T05:56:09;95550.69;;;5.14;100.00
61037;BME280;57313;47.040;15.498;2022-09-28T05:58:36;95545.13;;;5.20;100.00
61037;BME280;57313;47.040;15.498;2022-09-28T06:01:04;95523.97;;;5.28;100.00
61037;BME280;57313;47.040;15.498;2022-09-28T06:03:31;95530.47;;;5.33;100.00
61037;BME280;57313;47.040;15.498;2022-09-28T06:06:01;95528.28;;;5.40;100.00
61037;BME280;57313;47.040;15.498;2022-09-28T06:08:29;95523.31;;;5.50;100.00
61037;BME280;57313;47.040;15.498;2022-09-28T06:10:58;95528.16;;;5.54;100.00
61037;BME280;57313;47.040;15.498;2022-09-28T06:13:25;95539.72;;;5.62;100.00
61037;BME280;57313;47.040;15.498;2022-09-28T06:15:52;95540.22;;;5.67;100.00
61037;BME280;57313;47.040;15.498;2022-09-28T06:18:20;95535.69;;;5.70;100.00
61037;BME280;57313;47.040;15.498;2022-09-28T06:20:47;95539.69;;;5.74;100.00
61037;BME280;57313;47.040;15.498;2022-09-28T06:23:16;95535.88;;;5.80;100.00
61037;BME280;57313;47.040;15.498;2022-09-28T06:25:44;95528.59;;;5.85;100.00
61037;BME280;57313;47.040;15.498;2022-09-28T06:28:13;95539.47;;;5.90;100.00
61037;BME280;57313;47.040;15.498;2022-09-28T06:30:42;95545.94;;;5.96;100.00
61037;BME280;57313;47.040;15.498;2022-09-28T06:33:12;95535.31;;;6.01;100.00
61037;BME280;57313;47.040;15.498;2022-09-28T06:35:39;95544.06;;;6.11;100.00
61037;BME280;57313;47.040;15.498;2022-09-28T06:38:06;95542.91;;;6.15;100.00
61037;BME280;57313;47.040;15.498;2022-09-28T06:40:36;95544.94;;;6.23;100.00
61037;BME280;57313;47.040;15.498;2022-09-28T06:43:04;95550.41;;;6.31;100.00
61037;BME280;57313;47.040;15.498;2022-09-28T06:45:32;95542.53;;;6.33;100.00
61037;BME280;57313;47.040;15.498;2022-09-28T06:48:01;95548.91;;;6.40;100.00
61037;BME280;57313;47.040;15.498;2022-09-28T06:50:30;95546.22;;;6.41;100.00
61037;BME280;57313;47.040;15.498;2022-09-28T06:52:59;95547.31;;;6.50;100.00
61037;BME280;57313;47.040;15.498;2022-09-28T06:55:27;95544.41;;;6.55;100.00
61037;BME280;57313;47.040;15.498;2022-09-28T06:58:01;95530.31;;;6.59;100.00
61037;BME280;57313;47.040;15.498;2022-09-28T07:00:31;95532.22;;;6.68;100.00
61037;BME280;57313;47.040;15.498;2022-09-28T07:02:59;95528.56;;;6.71;100.00
61037;BME280;57313;47.040;15.498;2022-09-28T07:05:27;95529.66;;;6.79;100.00
61037;BME280;57313;47.040;15.498;2022-09-28T07:07:55;95524.75;;;6.88;100.00
61037;BME280;57313;47.040;15.498;2022-09-28T07:10:24;95531.47;;;6.90;100.00
61037;BME280;57313;47.040;15.498;2022-09-28T07:12:53;95527.47;;;6.97;100.00
61037;BME280;57313;47.040;15.498;2022-09-28T07:15:23;95511.13;;;7.08;100.00
61037;BME280;57313;47.040;15.498;2022-09-28T07:17:56;95510.78;;;7.13;100.00
61037;BME280;57313;47.040;15.498;2022-09-28T07:20:29;95507.63;;;7.21;100.00
61037;BME280;57313;47.040;15.498;2022-09-28T07:22:59;95501.38;;;7.23;100.00
61037;BME280;57313;47.040;15.498;2022-09-28T07:25:44;95500.22;;;7.27;100.00
61037;BME280;57313;47.040;15.498;2022-09-28T07:28:12;95500.09;;;7.29;100.00
61037;BME280;57313;47.040;15.498;2022-09-28T07:30:40;95490.91;;;7.36;100.00
61037;BME280;57313;47.040;15.498;2022-09-28T07:33:10;95487.97;;;7.41;100.00
61037;BME280;57313;47.040;15.498;2022-09-28T07:35:38;95496.00;;;7.49;100.00
61037;BME280;57313;47.040;15.498;2022-09-28T07:38:06;95481.16;;;7.51;100.00
61037;BME280;57313;47.040;15.498;2022-09-28T07:40:34;95484.88;;;7.58;100.00
61037;BME280;57313;47.040;15.498;2022-09-28T07:43:03;95493.97;;;7.64;100.00
61037;BME280;57313;47.040;15.498;2022-09-28T07:45:31;95493.47;;;7.70;100.00
61037;BME280;57313;47.040;15.498;2022-09-28T07:48:01;95491.47;;;7.73;100.00
61037;BME280;57313;47.040;15.498;2022-09-28T07:50:28;95492.66;;;7.81;100.00
61037;BME280;57313;47.040;15.498;2022-09-28T07:52:56;95486.97;;;7.87;100.00
61037;BME280;57313;47.040;15.498;2022-09-28T07:55:23;95471.06;;;7.91;100.00
61037;BME280;57313;47.040;15.498;2022-09-28T07:57:54;95474.94;;;7.97;100.00
61037;BME280;57313;47.040;15.498;2022-09-28T08:00:21;95475.88;;;7.96;100.00
61037;BME280;57313;47.040;15.498;2022-09-28T08:02:48;95479.88;;;8.00;100.00
61037;BME280;57313;47.040;15.498;2022-09-28T08:05:18;95472.00;;;8.02;100.00
61037;BME280;57313;47.040;15.498;2022-09-28T08:07:45;95476.81;;;8.06;100.00
61037;BME280;57313;47.040;15.498;2022-09-28T08:10:12;95489.84;;;8.16;100.00
61037;BME280;57313;47.040;15.498;2022-09-28T08:12:40;95481.69;;;8.21;100.00
61037;BME280;57313;47.040;15.498;2022-09-28T08:15:07;95481.22;;;8.27;100.00
61037;BME280;57313;47.040;15.498;2022-09-28T08:17:35;95481.78;;;8.31;100.00
61037;BME280;57313;47.040;15.498;2022-09-28T08:20:03;95475.16;;;8.38;100.00
61037;BME280;57313;47.040;15.498;2022-09-28T08:22:33;95475.50;;;8.44;100.00
61037;BME280;57313;47.040;15.498;2022-09-28T08:25:00;95478.19;;;8.43;100.00
61037;BME280;57313;47.040;15.498;2022-09-28T08:27:28;95470.63;;;8.51;100.00
61037;BME280;57313;47.040;15.498;2022-09-28T08:29:55;95474.63;;;8.55;100.00
61037;BME280;57313;47.040;15.498;2022-09-28T08:32:23;95481.78;;;8.63;100.00
61037;BME280;57313;47.040;15.498;2022-09-28T08:34:50;95479.50;;;8.70;100.00
61037;BME280;57313;47.040;15.498;2022-09-28T08:37:18;95474.78;;;8.75;100.00
61037;BME280;57313;47.040;15.498;2022-09-28T08:39:46;95476.28;;;8.77;100.00
61037;BME280;57313;47.040;15.498;2022-09-28T08:42:28;95469.63;;;8.85;100.00
61037;BME280;57313;47.040;15.498;2022-09-28T08:45:03;95461.47;;;8.89;100.00
61037;BME280;57313;47.040;15.498;2022-09-28T08:47:36;95460.41;;;8.92;100.00
61037;BME280;57313;47.040;15.498;2022-09-28T08:50:14;95445.75;;;8.91;100.00
61037;BME280;57313;47.040;15.498;2022-09-28T08:52:47;95462.34;;;9.00;100.00
61037;BME280;57313;47.040;15.498;2022-09-28T08:55:25;95450.47;;;9.07;100.00
61037;BME280;57313;47.040;15.498;2022-09-28T08:57:58;95456.09;;;9.12;100.00
61037;BME280;57313;47.040;15.498;2022-09-28T09:00:31;95470.22;;;9.19;100.00
61037;BME280;57313;47.040;15.498;2022-09-28T09:03:03;95452.59;;;9.23;100.00
61037;BME280;57313;47.040;15.498;2022-09-28T09:05:49;95448.66;;;9.28;100.00
61037;BME280;57313;47.040;15.498;2022-09-28T09:08:32;95455.25;;;9.32;100.00
61037;BME280;57313;47.040;15.498;2022-09-28T09:11:17;95444.88;;;9.32;100.00
61037;BME280;57313;47.040;15.498;2022-09-28T09:14:01;95443.50;;;9.38;100.00
61037;BME280;57313;47.040;15.498;2022-09-28T09:16:44;95446.69;;;9.42;100.00
61037;BME280;57313;47.040;15.498;2022-09-28T09:19:15;95446.03;;;9.49;100.00
61037;BME280;57313;47.040;15.498;2022-09-28T09:21:47;95441.50;;;9.51;100.00
61037;BME280;57313;47.040;15.498;2022-09-28T09:24:23;95443.28;;;9.51;100.00
61037;BME280;57313;47.040;15.498;2022-09-28T09:27:03;95437.44;;;9.59;100.00
61037;BME280;57313;47.040;15.498;2022-09-28T09:29:47;95437.97;;;9.62;100.00
61037;BME280;57313;47.040;15.498;2022-09-28T09:32:37;95432.38;;;9.67;100.00
61037;BME280;57313;47.040;15.498;2022-09-28T09:35:24;95436.91;;;9.75;100.00
61037;BME280;57313;47.040;15.498;2022-09-28T09:38:06;95434.72;;;9.80;100.00
61037;BME280;57313;47.040;15.498;2022-09-28T09:40:54;95440.59;;;9.82;100.00
61037;BME280;57313;47.040;15.498;2022-09-28T09:43:53;95445.94;;;9.70;100.00
61037;BME280;57313;47.040;15.498;2022-09-28T09:46:33;95445.53;;;9.75;100.00
61037;BME280;57313;47.040;15.498;2022-09-28T09:49:07;95449.50;;;9.79;100.00
61037;BME280;57313;47.040;15.498;2022-09-28T09:51:41;95446.25;;;9.87;100.00
61037;BME280;57313;47.040;15.498;2022-09-28T09:54:17;95445.00;;;9.91;100.00
61037;BME280;57313;47.040;15.498;2022-09-28T09:56:52;95428.06;;;9.97;100.00
61037;BME280;57313;47.040;15.498;2022-09-28T09:59:26;95429.69;;;9.98;100.00
61037;BME280;57313;47.040;15.498;2022-09-28T10:01:57;95431.06;;;10.02;100.00
61037;BME280;57313;47.040;15.498;2022-09-28T10:04:29;95423.81;;;10.05;100.00
61037;BME280;57313;47.040;15.498;2022-09-28T10:07:02;95433.81;;;10.10;100.00
61037;BME280;57313;47.040;15.498;2022-09-28T10:09:33;95420.97;;;10.09;100.00
61037;BME280;57313;47.040;15.498;2022-09-28T10:12:01;95429.03;;;10.15;100.00
61037;BME280;57313;47.040;15.498;2022-09-28T10:14:32;95420.81;;;10.20;100.00
61037;BME280;57313;47.040;15.498;2022-09-28T10:17:00;95428.06;;;10.26;100.00
61037;BME280;57313;47.040;15.498;2022-09-28T10:19:31;95423.53;;;10.28;100.00
61037;BME280;57313;47.040;15.498;2022-09-28T10:22:02;95428.22;;;10.34;100.00
61037;BME280;57313;47.040;15.498;2022-09-28T10:24:33;95420.16;;;10.37;100.00
61037;BME280;57313;47.040;15.498;2022-09-28T10:27:06;95409.03;;;10.45;100.00
61037;BME280;57313;47.040;15.498;2022-09-28T10:29:43;95410.28;;;10.51;100.00
61037;BME280;57313;47.040;15.498;2022-09-28T10:32:20;95400.25;;;10.56;100.00
61037;BME280;57313;47.040;15.498;2022-09-28T10:34:50;95402.31;;;10.62;100.00
61037;BME280;57313;47.040;15.498;2022-09-28T10:37:18;95396.28;;;10.62;100.00
61037;BME280;57313;47.040;15.498;2022-09-28T10:39:48;95401.06;;;10.66;100.00
61037;BME280;57313;47.040;15.498;2022-09-28T10:42:21;95399.69;;;10.72;100.00
61037;BME280;57313;47.040;15.498;2022-09-28T10:44:54;95408.72;;;10.77;100.00
61037;BME280;57313;47.040;15.498;2022-09-28T10:47:23;95403.22;;;10.81;100.00
61037;BME280;57313;47.040;15.498;2022-09-28T10:49:52;95402.00;;;10.85;100.00
61037;BME280;57313;47.040;15.498;2022-09-28T10:52:32;95398.28;;;10.87;100.00
61037;BME280;57313;47.040;15.498;2022-09-28T10:55:02;95405.28;;;10.87;100.00
61037;BME280;57313;47.040;15.498;2022-09-28T10:57:33;95407.88;;;10.87;100.00
61037;BME280;57313;47.040;15.498;2022-09-28T11:00:04;95409.38;;;10.89;100.00
61037;BME280;57313;47.040;15.498;2022-09-28T11:02:33;95395.25;;;10.92;100.00
61037;BME280;57313;47.040;15.498;2022-09-28T11:05:04;95387.84;;;10.97;100.00
61037;BME280;57313;47.040;15.498;2022-09-28T11:07:43;95387.94;;;11.05;100.00
61037;BME280;57313;47.040;15.498;2022-09-28T11:10:20;95387.28;;;11.03;100.00
61037;BME280;57313;47.040;15.498;2022-09-28T11:12:48;95389.44;;;11.08;100.00
61037;BME280;57313;47.040;15.498;2022-09-28T11:15:20;95379.41;;;11.13;100.00
61037;BME280;57313;47.040;15.498;2022-09-28T11:17:50;95377.31;;;11.17;100.00
61037;BME280;57313;47.040;15.498;2022-09-28T11:20:32;95376.22;;;11.19;100.00
61037;BME280;57313;47.040;15.498;2022-09-28T11:23:16;95378.41;;;11.24;100.00
61037;BME280;57313;47.040;15.498;2022-09-28T11:25:55;95359.59;;;11.30;100.00
61037;BME280;57313;47.040;15.498;2022-09-28T11:28:30;95358.47;;;11.32;100.00
61037;BME280;57313;47.040;15.498;2022-09-28T11:31:00;95357.88;;;11.39;100.00
61037;BME280;57313;47.040;15.498;2022-09-28T11:33:31;95361.84;;;11.43;100.00
61037;BME280;57313;47.040;15.498;2022-09-28T11:36:08;95359.75;;;11.46;100.00
61037;BME280;57313;47.040;15.498;2022-09-28T11:38:40;95354.78;;;11.53;100.00
61037;BME280;57313;47.040;15.498;2022-09-28T11:41:26;95341.63;;;11.55;100.00
61037;BME280;57313;47.040;15.498;2022-09-28T11:44:27;95335.41;;;11.56;100.00
61037;BME280;57313;47.040;15.498;2022-09-28T11:50:17;95342.19;;;11.66;100.00
61037;BME280;57313;47.040;15.498;2022-09-28T11:53:00;95347.13;;;11.70;100.00
61037;BME280;57313;47.040;15.498;2022-09-28T11:55:32;95348.31;;;11.75;100.00
61037;BME280;57313;47.040;15.498;2022-09-28T11:58:05;95345.94;;;11.82;100.00
61037;BME280;57313;47.040;15.498;2022-09-28T12:00:39;95342.38;;;11.83;100.00
61037;BME280;57313;47.040;15.498;2022-09-28T12:03:14;95337.31;;;11.81;100.00
61037;BME280;57313;47.040;15.498;2022-09-28T12:05:46;95334.91;;;11.88;100.00
61037;BME280;57313;47.040;15.498;2022-09-28T12:08:18;95325.03;;;11.92;100.00
61037;BME280;57313;47.040;15.498;2022-09-28T12:10:52;95333.38;;;11.95;100.00
61037;BME280;57313;47.040;15.498;2022-09-28T12:13:23;95333.25;;;11.97;100.00
61037;BME280;57313;47.040;15.498;2022-09-28T12:15:55;95322.66;;;11.98;100.00
61037;BME280;57313;47.040;15.498;2022-09-28T12:18:49;95326.91;;;11.99;100.00
61037;BME280;57313;47.040;15.498;2022-09-28T12:21:32;95332.94;;;12.00;100.00
61037;BME280;57313;47.040;15.498;2022-09-28T12:24:05;95328.22;;;12.03;100.00
61037;BME280;57313;47.040;15.498;2022-09-28T12:26:41;95318.44;;;12.06;100.00
61037;BME280;57313;47.040;15.498;2022-09-28T12:29:13;95316.69;;;12.06;100.00
61037;BME280;57313;47.040;15.498;2022-09-28T12:31:53;95313.09;;;12.07;100.00
61037;BME280;57313;47.040;15.498;2022-09-28T12:34:24;95306.44;;;12.13;100.00
61037;BME280;57313;47.040;15.498;2022-09-28T12:37:07;95309.25;;;12.19;100.00
61037;BME280;57313;47.040;15.498;2022-09-28T12:39:52;95304.78;;;12.30;100.00
61037;BME280;57313;47.040;15.498;2022-09-28T12:42:45;95299.41;;;12.31;100.00
61037;BME280;57313;47.040;15.498;2022-09-28T12:45:47;95286.56;;;12.38;100.00
61037;BME280;57313;47.040;15.498;2022-09-28T12:48:58;95292.16;;;12.43;100.00
61037;BME280;57313;47.040;15.498;2022-09-28T12:51:51;95291.38;;;12.51;100.00
61037;BME280;57313;47.040;15.498;2022-09-28T12:54:39;95281.75;;;12.51;100.00
61037;BME280;57313;47.040;15.498;2022-09-28T12:57:29;95290.75;;;12.57;100.00
61037;BME280;57313;47.040;15.498;2022-09-28T13:00:04;95292.06;;;12.61;100.00
61037;BME280;57313;47.040;15.498;2022-09-28T13:02:56;95289.00;;;12.66;100.00
61037;BME280;57313;47.040;15.498;2022-09-28T13:05:57;95283.00;;;12.73;100.00
61037;BME280;57313;47.040;15.498;2022-09-28T13:08:38;95284.69;;;12.83;100.00
61037;BME280;57313;47.040;15.498;2022-09-28T13:11:18;95283.91;;;12.90;100.00
61037;BME280;57313;47.040;15.498;2022-09-28T13:13:53;95278.34;;;12.93;100.00
61037;BME280;57313;47.040;15.498;2022-09-28T13:16:27;95280.50;;;12.98;100.00
61037;BME280;57313;47.040;15.498;2022-09-28T13:19:09;95279.06;;;13.04;100.00